Alna, Maine
Current Conditions -  °F | °C
As of 6:53 PM on Sunday 21 Dec 2014 (Local Time) from KIWI Reporting Station
Clear Clear  
Wind Chill: -3°   Ceiling: Unl
Heat Index: -3°   Visibility: 10mi
Dew Point: -6°   Wind: 0mph
Humidity: 84%   Direction: NA
Pressure: 30.37"   Gusts: NA
Location:  44.11°N, 69.6°W
Report Text: KIWI 212353Z AUTO 00000KT 10SM CLR M03/M06 A3037 RMK AO2 SLP287 T10331056 10011 21039 51010
Loading
Personal Weather Stations






























Interactive Weather Map New forecast layout! Learn more

10-Day Weather Forecast

Advertisements
Track Severe Weather on mobile